createdAt,value
2022-10-30T00:00:01.425Z,101101.47
2022-10-30T00:02:41.572Z,101104.03
2022-10-30T00:05:13.909Z,101099.81
2022-10-30T00:07:41.660Z,101093.06
2022-10-30T00:10:11.452Z,101086.22
2022-10-30T00:12:39.305Z,101092.41
2022-10-30T00:15:10.972Z,101087.34
2022-10-30T00:17:54.115Z,101061.75
2022-10-30T00:20:23.281Z,101060.91
2022-10-30T00:22:51.094Z,101060.09
2022-10-30T00:25:21.694Z,101055.25
2022-10-30T00:27:51.616Z,101063.00
2022-10-30T00:30:19.467Z,101068.19
2022-10-30T00:32:50.967Z,101068.66
2022-10-30T00:35:18.810Z,101061.56
2022-10-30T00:37:50.749Z,101050.94
2022-10-30T00:40:26.085Z,101074.28
2022-10-30T00:42:58.056Z,101071.75
2022-10-30T00:45:26.349Z,101060.25
2022-10-30T00:47:59.189Z,101081.81
2022-10-30T00:50:32.107Z,101070.75
2022-10-30T00:53:06.497Z,101076.38
2022-10-30T00:55:39.409Z,101070.28
2022-10-30T00:58:15.154Z,101066.97
2022-10-30T01:00:49.775Z,101060.09
2022-10-30T01:03:17.970Z,101066.72
2022-10-30T01:05:50.153Z,101066.50
2022-10-30T01:08:19.913Z,101068.94
2022-10-30T01:10:49.325Z,101073.16
2022-10-30T01:13:19.255Z,101069.84
2022-10-30T01:16:04.110Z,101061.31
2022-10-30T01:18:48.034Z,101055.13
2022-10-30T01:21:39.431Z,101059.09
2022-10-30T01:24:21.277Z,101050.09
2022-10-30T01:26:59.093Z,101056.94
2022-10-30T01:29:37.451Z,101052.53
2022-10-30T01:32:27.901Z,101058.28
2022-10-30T01:35:14.841Z,101055.84
2022-10-30T01:37:51.550Z,101052.88
2022-10-30T01:40:21.322Z,101056.41
2022-10-30T01:42:54.204Z,101056.41
2022-10-30T01:45:58.648Z,101063.41
2022-10-30T01:49:03.776Z,101048.78
2022-10-30T01:51:47.491Z,101043.47
2022-10-30T01:54:25.896Z,101052.88
2022-10-30T01:57:07.541Z,101049.47
2022-10-30T01:59:41.355Z,101060.50
2022-10-30T02:02:11.089Z,101060.63
2022-10-30T02:04:39.783Z,101063.19
2022-10-30T02:07:07.807Z,101060.50
2022-10-30T02:09:42.419Z,101057.94
2022-10-30T02:12:11.776Z,101061.19
2022-10-30T02:14:45.673Z,101063.56
2022-10-30T02:17:14.779Z,101037.00
2022-10-30T02:19:42.787Z,101072.88
2022-10-30T02:22:14.570Z,101070.34
2022-10-30T02:24:42.344Z,101067.69
2022-10-30T02:27:12.296Z,101066.69
2022-10-30T02:29:41.508Z,101069.75
2022-10-30T02:32:09.379Z,101068.50
2022-10-30T02:34:38.006Z,101074.78
2022-10-30T02:37:07.800Z,101075.44
2022-10-30T02:39:36.906Z,101066.81
2022-10-30T02:42:05.739Z,101073.41
2022-10-30T02:44:33.493Z,101074.22
2022-10-30T02:47:01.241Z,101063.16
2022-10-30T02:49:29.072Z,101075.84
2022-10-30T02:51:56.946Z,101068.88
2022-10-30T02:54:25.658Z,101063.56
2022-10-30T02:56:55.463Z,101066.41
2022-10-30T02:59:23.901Z,101069.69
2022-10-30T03:01:52.408Z,101071.97
2022-10-30T03:04:20.511Z,101075.94
2022-10-30T03:06:49.095Z,101069.59
2022-10-30T03:09:16.913Z,101073.56
2022-10-30T03:11:45.291Z,101069.00
2022-10-30T03:14:14.564Z,101073.22
2022-10-30T03:16:42.288Z,101061.03
2022-10-30T03:19:10.137Z,101067.25
2022-10-30T03:21:40.901Z,101073.06
2022-10-30T03:24:08.977Z,101070.53
2022-10-30T03:26:39.532Z,101070.03
2022-10-30T03:29:08.516Z,101081.41
2022-10-30T03:31:39.685Z,101073.41
2022-10-30T03:34:17.111Z,101068.22
2022-10-30T03:36:44.821Z,101075.19
2022-10-30T03:39:13.691Z,101061.31
2022-10-30T03:41:44.515Z,101060.66
2022-10-30T03:44:13.262Z,101062.44
2022-10-30T03:46:43.280Z,101072.59
2022-10-30T03:49:24.833Z,101061.56
2022-10-30T03:51:52.613Z,101062.09
2022-10-30T03:54:20.332Z,101058.53
2022-10-30T03:56:48.168Z,101058.31
2022-10-30T03:59:20.420Z,101061.22
2022-10-30T04:02:07.589Z,101072.06
2022-10-30T04:04:35.807Z,101064.94
2022-10-30T04:07:03.889Z,101071.56
2022-10-30T04:09:31.869Z,101077.66
2022-10-30T04:12:01.569Z,101075.41
2022-10-30T04:14:29.962Z,101079.28
2022-10-30T04:16:58.084Z,101083.47
2022-10-30T04:19:31.142Z,101073.88
2022-10-30T04:21:59.478Z,101079.81
2022-10-30T04:24:27.277Z,101079.81
2022-10-30T04:26:58.972Z,101071.97
2022-10-30T04:29:27.066Z,101067.41
2022-10-30T04:32:00.817Z,101071.84
2022-10-30T04:34:30.583Z,101067.41
2022-10-30T04:37:03.241Z,101073.72
2022-10-30T04:39:40.982Z,101070.44
2022-10-30T04:42:17.929Z,101075.50
2022-10-30T04:44:45.757Z,101067.22
2022-10-30T04:47:13.512Z,101058.88
2022-10-30T04:49:42.713Z,101071.19
2022-10-30T04:52:17.807Z,101065.88
2022-10-30T04:54:48.209Z,101072.47
2022-10-30T04:57:15.929Z,101071.59
2022-10-30T04:59:47.686Z,101069.94
2022-10-30T05:02:19.562Z,101053.09
2022-10-30T05:04:55.491Z,101067.03
2022-10-30T05:07:27.036Z,101063.13
2022-10-30T05:09:54.904Z,101061.63
2022-10-30T05:12:23.999Z,101058.34
2022-10-30T05:14:57.245Z,101058.97
2022-10-30T05:20:05.517Z,101071.94
2022-10-30T05:22:33.596Z,101054.78
2022-10-30T05:25:06.482Z,101064.94
2022-10-30T05:27:34.303Z,101065.78
2022-10-30T05:30:03.397Z,101066.69
2022-10-30T05:32:34.390Z,101064.38
2022-10-30T05:35:04.857Z,101061.09
2022-10-30T05:37:45.805Z,101068.94
2022-10-30T05:40:13.828Z,101063.25
2022-10-30T05:42:48.248Z,101067.53
2022-10-30T05:45:16.598Z,101061.81
2022-10-30T05:47:46.291Z,101072.09
2022-10-30T05:50:16.368Z,101075.66
2022-10-30T05:52:56.742Z,101074.78
2022-10-30T05:55:25.793Z,101079.09
2022-10-30T05:58:14.700Z,101074.53
2022-10-30T06:00:48.060Z,101078.06
2022-10-30T06:03:29.632Z,101087.22
2022-10-30T06:06:10.457Z,101084.56
2022-10-30T06:08:39.297Z,101087.31
2022-10-30T06:11:29.256Z,101077.84
2022-10-30T06:14:00.155Z,101082.66
2022-10-30T06:16:46.204Z,101081.78
2022-10-30T06:19:17.570Z,101082.66
2022-10-30T06:21:50.976Z,101082.78
2022-10-30T06:24:31.544Z,101089.88
2022-10-30T06:27:19.856Z,101094.81
2022-10-30T06:29:47.732Z,101091.47
2022-10-30T06:32:21.561Z,101076.34
2022-10-30T06:34:50.518Z,101102.56
2022-10-30T06:37:23.191Z,101105.84
2022-10-30T06:39:51.247Z,101115.44
2022-10-30T06:42:46.182Z,101120.06
2022-10-30T06:45:29.097Z,101129.97
2022-10-30T06:47:58.204Z,101124.28
2022-10-30T06:50:26.797Z,101119.38
2022-10-30T06:52:56.544Z,101124.72
2022-10-30T06:55:24.706Z,101125.13
2022-10-30T06:58:31.077Z,101130.34
2022-10-30T07:01:27.582Z,101130.75
2022-10-30T07:04:18.499Z,101128.97
2022-10-30T07:06:46.083Z,101135.44
2022-10-30T07:09:17.783Z,101128.72
2022-10-30T07:11:45.998Z,101131.50
2022-10-30T07:14:39.688Z,101133.91
2022-10-30T07:17:43.072Z,101134.03
2022-10-30T07:20:27.418Z,101133.41
2022-10-30T07:22:56.105Z,101138.72
2022-10-30T07:25:29.014Z,101142.28
2022-10-30T07:28:05.908Z,101143.41
2022-10-30T07:31:02.910Z,101140.00
2022-10-30T07:33:49.052Z,101143.16
2022-10-30T07:36:41.105Z,101146.03
2022-10-30T07:39:23.891Z,101144.66
2022-10-30T07:42:05.594Z,101156.81
2022-10-30T07:48:03.920Z,101151.81
2022-10-30T07:51:02.871Z,101145.47
2022-10-30T07:53:31.014Z,101146.59
2022-10-30T07:55:58.983Z,101147.72
2022-10-30T07:58:46.654Z,101140.59
2022-10-30T08:02:04.370Z,101146.84
2022-10-30T08:04:42.331Z,101148.34
2022-10-30T08:07:33.459Z,101153.22
2022-10-30T08:10:01.553Z,101150.06
2022-10-30T08:12:30.014Z,101145.44
2022-10-30T08:14:59.380Z,101155.78
2022-10-30T08:17:27.510Z,101152.03
2022-10-30T08:19:57.037Z,101147.84
2022-10-30T08:22:25.098Z,101143.63
2022-10-30T08:25:02.137Z,101152.56
2022-10-30T08:27:31.864Z,101152.41
2022-10-30T08:30:04.988Z,101154.00
2022-10-30T08:32:33.243Z,101159.19
2022-10-30T08:35:33.754Z,101165.28
2022-10-30T08:38:07.645Z,101163.75
2022-10-30T08:40:35.705Z,101164.75
2022-10-30T08:43:16.985Z,101162.63
2022-10-30T08:45:46.584Z,101161.38
2022-10-30T08:48:23.952Z,101160.06
2022-10-30T08:50:52.345Z,101165.81
2022-10-30T08:53:27.930Z,101164.53
2022-10-30T08:55:59.508Z,101170.72
2022-10-30T08:58:35.304Z,101173.59
2022-10-30T09:01:05.094Z,101172.94
2022-10-30T09:03:52.170Z,101178.59
2022-10-30T09:06:52.093Z,101171.06
2022-10-30T09:09:44.900Z,101181.06
2022-10-30T09:12:18.618Z,101179.63
2022-10-30T09:14:54.962Z,101175.53
2022-10-30T09:17:30.896Z,101173.44
2022-10-30T09:20:04.447Z,101171.09
2022-10-30T09:22:45.679Z,101178.44
2022-10-30T09:25:17.594Z,101173.53
2022-10-30T09:27:54.418Z,101176.44
2022-10-30T09:30:25.819Z,101166.53
2022-10-30T09:32:59.704Z,101172.19
2022-10-30T09:35:48.004Z,101176.00
2022-10-30T09:38:19.080Z,101178.09
2022-10-30T09:41:20.768Z,101172.56
2022-10-30T09:44:05.712Z,101174.75
2022-10-30T09:46:58.195Z,101175.19
2022-10-30T09:50:01.213Z,101173.06
2022-10-30T09:52:41.285Z,101173.06
2022-10-30T09:55:37.291Z,101177.16
2022-10-30T09:58:19.482Z,101184.34
2022-10-30T10:00:54.146Z,101182.66
2022-10-30T10:03:42.941Z,101178.88
2022-10-30T10:06:47.987Z,101172.03
2022-10-30T10:10:03.290Z,101179.53
2022-10-30T10:13:01.072Z,101173.28
2022-10-30T10:15:56.631Z,101171.91
2022-10-30T10:21:18.943Z,101175.63
2022-10-30T10:23:51.075Z,101172.16
2022-10-30T10:26:44.503Z,101167.38
2022-10-30T10:29:42.162Z,101176.03
2022-10-30T10:32:50.256Z,101175.53
2022-10-30T10:35:48.939Z,101164.06
2022-10-30T10:38:32.214Z,101170.97
2022-10-30T10:41:19.733Z,101160.53
2022-10-30T10:44:18.154Z,101160.75
2022-10-30T10:47:07.527Z,101156.41
2022-10-30T10:49:57.811Z,101158.19
2022-10-30T10:52:37.624Z,101123.94
2022-10-30T10:55:31.502Z,101144.63
2022-10-30T10:58:12.613Z,101142.16
2022-10-30T11:00:49.177Z,101139.69
2022-10-30T11:03:21.782Z,101139.34
2022-10-30T11:05:56.814Z,101129.88
2022-10-30T11:08:30.368Z,101134.50
2022-10-30T11:11:00.533Z,101141.41
2022-10-30T11:13:39.483Z,101133.94
2022-10-30T11:16:37.929Z,101129.81
2022-10-30T11:19:10.341Z,101129.13
2022-10-30T11:21:47.980Z,101130.13
2022-10-30T11:24:29.164Z,101135.41
2022-10-30T11:27:00.090Z,101090.50
2022-10-30T11:29:33.051Z,101128.72
2022-10-30T11:32:05.256Z,101120.38
2022-10-30T11:34:37.645Z,101127.47
2022-10-30T11:37:29.148Z,101125.91
2022-10-30T11:40:03.957Z,101126.09
2022-10-30T11:42:32.735Z,101116.84
2022-10-30T11:45:02.498Z,101114.59
2022-10-30T11:47:39.976Z,101111.41
2022-10-30T11:50:22.216Z,101105.44
2022-10-30T11:52:55.422Z,101078.03
2022-10-30T11:55:46.226Z,101107.53
2022-10-30T11:58:28.678Z,101096.25
2022-10-30T12:01:09.382Z,101087.75
2022-10-30T12:03:42.245Z,101100.84
2022-10-30T12:06:12.815Z,101097.69
2022-10-30T12:08:43.021Z,101101.13
2022-10-30T12:11:11.178Z,101085.78
2022-10-30T12:13:40.959Z,101079.69
2022-10-30T12:16:20.608Z,101086.16
2022-10-30T12:18:58.190Z,101077.81
2022-10-30T12:21:27.184Z,101081.25
2022-10-30T12:24:06.615Z,101059.22
2022-10-30T12:26:35.327Z,101056.06
2022-10-30T12:29:17.867Z,101058.03
2022-10-30T12:31:52.351Z,101067.25
2022-10-30T12:34:35.528Z,101069.03
2022-10-30T12:37:09.328Z,101064.09
2022-10-30T12:39:51.065Z,101058.19
2022-10-30T12:42:23.009Z,101059.19
2022-10-30T12:44:56.355Z,101058.47
2022-10-30T12:47:30.926Z,101055.13
2022-10-30T12:50:09.794Z,101059.34
2022-10-30T12:52:43.413Z,101054.06
2022-10-30T12:55:17.296Z,101054.16
2022-10-30T12:57:50.810Z,101055.03
2022-10-30T13:00:25.790Z,101047.25
2022-10-30T13:03:16.899Z,101062.97
2022-10-30T13:08:28.735Z,101051.59
2022-10-30T13:11:04.753Z,101057.59
2022-10-30T13:13:39.921Z,101053.34
2022-10-30T13:16:22.572Z,101058.28
2022-10-30T13:18:56.188Z,101054.75
2022-10-30T13:21:30.710Z,101059.78
2022-10-30T13:24:04.555Z,101057.22
2022-10-30T13:26:40.410Z,101057.41
2022-10-30T13:29:16.933Z,101055.56
2022-10-30T13:32:14.251Z,101054.91
2022-10-30T13:34:55.426Z,101042.34
2022-10-30T13:37:41.772Z,101046.47
2022-10-30T13:40:19.432Z,101050.53
2022-10-30T13:43:06.169Z,101046.69
2022-10-30T13:46:03.200Z,101046.22
2022-10-30T13:48:51.960Z,101044.56
2022-10-30T13:51:41.397Z,101040.22
2022-10-30T13:54:20.897Z,101040.22
2022-10-30T13:56:53.809Z,101042.00
2022-10-30T13:59:36.397Z,101041.19
2022-10-30T14:02:17.589Z,101034.72
2022-10-30T14:04:53.963Z,101046.78
2022-10-30T14:07:34.655Z,101037.28
2022-10-30T14:10:09.841Z,101046.53
2022-10-30T14:13:08.478Z,101041.41
2022-10-30T14:15:43.725Z,101048.28
2022-10-30T14:18:30.075Z,101047.69
2022-10-30T14:20:59.370Z,101029.31
2022-10-30T14:23:33.884Z,101051.50
2022-10-30T14:26:15.974Z,101044.91
2022-10-30T14:28:45.926Z,101051.88
2022-10-30T14:31:17.594Z,101039.19
2022-10-30T14:33:52.952Z,101039.94
2022-10-30T14:36:23.820Z,101039.88
2022-10-30T14:39:00.829Z,101044.81
2022-10-30T14:41:41.832Z,101041.16
2022-10-30T14:44:21.250Z,101034.28
2022-10-30T14:47:04.856Z,101035.88
2022-10-30T14:49:45.772Z,101035.69
2022-10-30T14:52:24.859Z,101017.94
2022-10-30T14:55:04.838Z,101029.22
2022-10-30T14:57:48.239Z,101013.91
2022-10-30T15:00:39.075Z,101025.31
2022-10-30T15:03:10.065Z,101023.44
2022-10-30T15:05:47.603Z,101025.72
2022-10-30T15:08:28.778Z,101022.75
2022-10-30T15:11:18.189Z,101022.34
2022-10-30T15:13:49.927Z,101020.22
2022-10-30T15:16:20.072Z,101023.28
2022-10-30T15:18:55.792Z,101022.88
2022-10-30T15:21:29.285Z,101027.00
2022-10-30T15:23:59.681Z,101029.09
2022-10-30T15:26:35.639Z,101027.78
2022-10-30T15:29:19.322Z,101013.38
2022-10-30T15:31:58.486Z,101028.09
2022-10-30T15:34:27.739Z,101033.81
2022-10-30T15:36:58.449Z,101025.16
2022-10-30T15:39:26.229Z,101034.38
2022-10-30T15:41:58.107Z,101033.41
2022-10-30T15:44:28.332Z,101039.41
2022-10-30T15:47:03.845Z,101018.16
2022-10-30T15:49:34.332Z,101035.38
2022-10-30T15:52:21.789Z,101029.75
2022-10-30T15:54:54.473Z,101039.56
2022-10-30T15:57:57.387Z,101033.16
2022-10-30T16:00:24.420Z,101040.41
2022-10-30T16:03:01.329Z,101035.47
2022-10-30T16:05:33.600Z,101026.41
2022-10-30T16:08:03.242Z,101032.69
2022-10-30T16:10:46.534Z,101028.94
2022-10-30T16:13:32.061Z,101037.72
2022-10-30T16:16:01.397Z,101035.13
2022-10-30T16:18:32.534Z,101030.88
2022-10-30T16:21:03.738Z,101041.19
2022-10-30T16:23:38.010Z,101033.88
2022-10-30T16:26:06.132Z,101036.09
2022-10-30T16:28:38.821Z,101037.88
2022-10-30T16:31:09.978Z,101041.19
2022-10-30T16:33:38.803Z,101035.00
2022-10-30T16:36:08.320Z,101031.78
2022-10-30T16:38:38.828Z,101037.88
2022-10-30T16:41:13.302Z,101036.19
2022-10-30T16:43:44.744Z,101029.25
2022-10-30T16:46:38.976Z,101036.47
2022-10-30T16:49:14.950Z,101040.22
2022-10-30T16:51:44.130Z,101037.94
2022-10-30T16:54:21.494Z,101025.03
2022-10-30T16:56:51.930Z,101041.16
2022-10-30T16:59:28.777Z,101038.97
2022-10-30T17:02:06.687Z,101052.03
2022-10-30T17:04:45.208Z,101029.59
2022-10-30T17:07:25.376Z,101051.59
2022-10-30T17:09:58.524Z,101042.53
2022-10-30T17:12:30.638Z,101025.03
2022-10-30T17:15:17.960Z,101054.50
2022-10-30T17:18:13.245Z,101057.03
2022-10-30T17:20:41.079Z,101052.97
2022-10-30T17:23:17.690Z,101058.63
2022-10-30T17:25:45.929Z,101061.81
2022-10-30T17:28:27.865Z,101063.38
2022-10-30T17:30:57.464Z,101071.66
2022-10-30T17:33:35.304Z,101067.88
2022-10-30T17:36:03.952Z,101062.34
2022-10-30T17:38:31.874Z,101065.56
2022-10-30T17:40:59.954Z,101067.09
2022-10-30T17:43:30.460Z,101065.34
2022-10-30T17:45:59.716Z,101067.19
2022-10-30T17:48:29.868Z,101064.66
2022-10-30T17:50:57.722Z,101074.53
2022-10-30T17:53:28.050Z,101061.03
2022-10-30T17:56:01.775Z,101076.22
2022-10-30T17:58:30.852Z,101074.00
2022-10-30T18:01:00.731Z,101076.53
2022-10-30T18:03:28.747Z,101080.78
2022-10-30T18:05:58.292Z,101085.97
2022-10-30T18:08:26.196Z,101085.94
2022-10-30T18:10:56.999Z,101091.38
2022-10-30T18:13:26.874Z,101091.16
2022-10-30T18:15:57.018Z,101101.34
2022-10-30T18:18:26.168Z,101103.78
2022-10-30T18:20:53.972Z,101109.50
2022-10-30T18:23:51.808Z,101114.38
2022-10-30T18:26:16.482Z,101109.19
2022-10-30T18:28:44.766Z,101099.41
2022-10-30T18:31:13.982Z,101089.22
2022-10-30T18:33:50.702Z,101112.63
2022-10-30T18:36:20.166Z,101115.28
2022-10-30T18:38:50.364Z,101105.44
2022-10-30T18:41:24.940Z,101120.16
2022-10-30T18:43:52.735Z,101115.97
2022-10-30T18:46:20.496Z,101122.06
2022-10-30T18:48:49.566Z,101116.97
2022-10-30T18:51:19.107Z,101112.63
2022-10-30T18:53:51.793Z,101115.41
2022-10-30T18:56:24.056Z,101120.88
2022-10-30T18:58:56.434Z,101122.88
2022-10-30T19:01:30.739Z,101123.75
2022-10-30T19:04:00.965Z,101127.31
2022-10-30T19:06:29.449Z,101102.03
2022-10-30T19:08:57.202Z,101132.06
2022-10-30T19:11:25.843Z,101139.06
2022-10-30T19:13:55.130Z,101128.88
2022-10-30T19:16:24.456Z,101139.06
2022-10-30T19:18:52.647Z,101124.88
2022-10-30T19:21:23.294Z,101142.38
2022-10-30T19:23:51.278Z,101136.41
2022-10-30T19:26:18.989Z,101108.69
2022-10-30T19:28:46.855Z,101143.34
2022-10-30T19:31:19.093Z,101135.78
2022-10-30T19:33:51.424Z,101134.78
2022-10-30T19:36:30.245Z,101149.25
2022-10-30T19:38:58.086Z,101147.38
2022-10-30T19:41:26.199Z,101147.03
2022-10-30T19:43:54.233Z,101145.69
2022-10-30T19:46:22.548Z,101155.38
2022-10-30T19:48:59.270Z,101150.88
2022-10-30T19:51:29.241Z,101155.16
2022-10-30T19:53:57.171Z,101155.16
2022-10-30T19:56:24.992Z,101153.06
2022-10-30T19:58:52.820Z,101151.94
2022-10-30T20:01:20.669Z,101154.38
2022-10-30T20:03:48.542Z,101160.09
2022-10-30T20:06:19.247Z,101153.78
2022-10-30T20:08:48.410Z,101149.09
2022-10-30T20:11:16.036Z,101157.41
2022-10-30T20:13:43.948Z,101162.38
2022-10-30T20:16:12.205Z,101161.47
2022-10-30T20:18:39.916Z,101164.53
2022-10-30T20:21:11.035Z,101162.53
2022-10-30T20:23:41.811Z,101177.19
2022-10-30T20:26:23.487Z,101168.06
2022-10-30T20:28:51.753Z,101182.84
2022-10-30T20:31:19.637Z,101183.00
2022-10-30T20:33:53.442Z,101181.63
2022-10-30T20:36:21.387Z,101182.16
2022-10-30T20:38:49.187Z,101181.78
2022-10-30T20:41:23.213Z,101183.06
2022-10-30T20:43:50.966Z,101194.28
2022-10-30T20:46:19.246Z,101188.16
2022-10-30T20:48:47.181Z,101197.31
2022-10-30T20:51:17.515Z,101197.94
2022-10-30T20:53:45.269Z,101183.50
2022-10-30T20:56:16.488Z,101198.97
2022-10-30T20:58:45.631Z,101202.31
2022-10-30T21:01:14.066Z,101192.78
2022-10-30T21:03:47.963Z,101199.13
2022-10-30T21:06:15.717Z,101198.75
2022-10-30T21:08:43.627Z,101205.25
2022-10-30T21:11:11.410Z,101203.34
2022-10-30T21:13:39.080Z,101201.06
2022-10-30T21:16:11.299Z,101187.97
2022-10-30T21:18:39.132Z,101201.16
2022-10-30T21:21:11.497Z,101203.69
2022-10-30T21:23:39.343Z,101203.81
2022-10-30T21:26:10.932Z,101210.03
2022-10-30T21:28:39.298Z,101204.94
2022-10-30T21:31:09.110Z,101205.31
2022-10-30T21:33:39.008Z,101207.97
2022-10-30T21:36:12.061Z,101207.31
2022-10-30T21:38:42.645Z,101211.53
2022-10-30T21:41:10.981Z,101214.31
2022-10-30T21:43:41.235Z,101208.34
2022-10-30T21:46:09.689Z,101206.81
2022-10-30T21:48:39.322Z,101208.47
2022-10-30T21:51:12.198Z,101210.00
2022-10-30T21:53:42.554Z,101214.06
2022-10-30T21:56:12.222Z,101225.25
2022-10-30T21:58:40.302Z,101226.78
2022-10-30T22:01:08.270Z,101231.59
2022-10-30T22:03:40.548Z,101237.44
2022-10-30T22:06:11.873Z,101234.78
2022-10-30T22:08:40.095Z,101231.25
2022-10-30T22:11:10.119Z,101246.59
2022-10-30T22:13:38.929Z,101243.78
2022-10-30T22:16:08.411Z,101249.66
2022-10-30T22:18:41.245Z,101247.22
2022-10-30T22:21:11.236Z,101250.91
2022-10-30T22:23:40.341Z,101254.22
2022-10-30T22:26:11.364Z,101244.19
2022-10-30T22:28:39.165Z,101246.72
2022-10-30T22:31:11.878Z,101253.44
2022-10-30T22:33:42.015Z,101246.59
2022-10-30T22:36:16.582Z,101248.25
2022-10-30T22:38:45.807Z,101261.97
2022-10-30T22:41:15.821Z,101259.41
2022-10-30T22:43:45.173Z,101258.78
2022-10-30T22:46:14.325Z,101245.72
2022-10-30T22:48:44.078Z,101262.59
2022-10-30T22:51:15.482Z,101257.50
2022-10-30T22:53:48.902Z,101266.66
2022-10-30T22:56:18.647Z,101266.53
2022-10-30T22:58:49.795Z,101274.03
2022-10-30T23:01:23.340Z,101269.81
2022-10-30T23:03:53.248Z,101276.56
2022-10-30T23:06:21.059Z,101277.44
2022-10-30T23:08:49.325Z,101262.34
2022-10-30T23:11:17.264Z,101280.66
2022-10-30T23:13:46.433Z,101288.25
2022-10-30T23:16:17.179Z,101283.81
2022-10-30T23:18:45.483Z,101286.22
2022-10-30T23:21:17.144Z,101289.44
2022-10-30T23:23:45.633Z,101286.50
2022-10-30T23:26:17.829Z,101295.75
2022-10-30T23:28:46.599Z,101284.34
2022-10-30T23:31:19.876Z,101303.13
2022-10-30T23:33:48.534Z,101300.72
2022-10-30T23:36:19.073Z,101301.97
2022-10-30T23:38:52.942Z,101303.50
2022-10-30T23:41:21.143Z,101310.84
2022-10-30T23:43:49.572Z,101305.50
2022-10-30T23:46:17.375Z,101325.31
2022-10-30T23:48:48.274Z,101308.31
2022-10-30T23:51:18.762Z,101316.84
2022-10-30T23:53:53.110Z,101326.34
2022-10-30T23:56:21.030Z,101314.41
2022-10-30T23:58:58.641Z,101319.63
